sensor_id;sensor_type;location;lat;lon;timestamp;pressure;altitude;pressure_sealevel;temperature
45393;BMP280;31129;44.810;10.334;2023-02-01T00:01:29;101197.63;;;6.54
45393;BMP280;31129;44.810;10.334;2023-02-01T00:03:54;101197.81;;;6.47
45393;BMP280;31129;44.810;10.334;2023-02-01T00:06:19;101202.00;;;6.68
45393;BMP280;31129;44.810;10.334;2023-02-01T00:08:45;101199.78;;;6.63
45393;BMP280;31129;44.810;10.334;2023-02-01T00:11:11;101202.22;;;6.57
45393;BMP280;31129;44.810;10.334;2023-02-01T00:13:39;101208.97;;;6.49
45393;BMP280;31129;44.810;10.334;2023-02-01T00:16:05;101201.38;;;6.44
45393;BMP280;31129;44.810;10.334;2023-02-01T00:18:31;101205.66;;;6.41
45393;BMP280;31129;44.810;10.334;2023-02-01T00:20:57;101193.44;;;6.33
45393;BMP280;31129;44.810;10.334;2023-02-01T00:23:22;101183.38;;;6.34
45393;BMP280;31129;44.810;10.334;2023-02-01T00:25:48;101185.44;;;6.46
45393;BMP280;31129;44.810;10.334;2023-02-01T00:28:13;101190.06;;;6.29
45393;BMP280;31129;44.810;10.334;2023-02-01T00:30:38;101211.34;;;6.31
45393;BMP280;31129;44.810;10.334;2023-02-01T00:33:04;101213.38;;;6.23
45393;BMP280;31129;44.810;10.334;2023-02-01T00:35:29;101205.25;;;6.23
45393;BMP280;31129;44.810;10.334;2023-02-01T00:38:16;101205.84;;;6.14
45393;BMP280;31129;44.810;10.334;2023-02-01T00:40:41;101194.50;;;6.19
45393;BMP280;31129;44.810;10.334;2023-02-01T00:43:06;101199.09;;;6.22
45393;BMP280;31129;44.810;10.334;2023-02-01T00:45:31;101190.91;;;6.06
45393;BMP280;31129;44.810;10.334;2023-02-01T00:48:00;101193.25;;;6.04
45393;BMP280;31129;44.810;10.334;2023-02-01T00:50:25;101190.56;;;6.04
45393;BMP280;31129;44.810;10.334;2023-02-01T00:52:50;101202.31;;;5.98
45393;BMP280;31129;44.810;10.334;2023-02-01T00:55:16;101210.84;;;5.96
45393;BMP280;31129;44.810;10.334;2023-02-01T00:57:41;101205.06;;;5.94
45393;BMP280;31129;44.810;10.334;2023-02-01T01:00:07;101204.53;;;5.83
45393;BMP280;31129;44.810;10.334;2023-02-01T01:02:33;101205.34;;;5.80
45393;BMP280;31129;44.810;10.334;2023-02-01T01:04:58;101208.81;;;5.80
45393;BMP280;31129;44.810;10.334;2023-02-01T01:07:23;101211.38;;;5.68
45393;BMP280;31129;44.810;10.334;2023-02-01T01:09:49;101211.00;;;5.66
45393;BMP280;31129;44.810;10.334;2023-02-01T01:12:14;101210.63;;;5.44
45393;BMP280;31129;44.810;10.334;2023-02-01T01:14:40;101210.41;;;5.58
45393;BMP280;31129;44.810;10.334;2023-02-01T01:17:05;101201.22;;;5.52
45393;BMP280;31129;44.810;10.334;2023-02-01T01:19:30;101198.38;;;5.39
45393;BMP280;31129;44.810;10.334;2023-02-01T01:21:56;101197.09;;;5.44
45393;BMP280;31129;44.810;10.334;2023-02-01T01:24:21;101201.94;;;5.56
45393;BMP280;31129;44.810;10.334;2023-02-01T01:26:47;101205.31;;;5.60
45393;BMP280;31129;44.810;10.334;2023-02-01T01:29:12;101197.69;;;5.55
45393;BMP280;31129;44.810;10.334;2023-02-01T01:31:41;101207.00;;;5.54
45393;BMP280;31129;44.810;10.334;2023-02-01T01:34:06;101205.75;;;5.58
45393;BMP280;31129;44.810;10.334;2023-02-01T01:36:31;101209.53;;;5.61
45393;BMP280;31129;44.810;10.334;2023-02-01T01:38:57;101201.94;;;5.56
45393;BMP280;31129;44.810;10.334;2023-02-01T01:41:25;101211.06;;;5.85
45393;BMP280;31129;44.810;10.334;2023-02-01T01:44:00;101210.38;;;6.01
45393;BMP280;31129;44.810;10.334;2023-02-01T01:46:29;101216.91;;;6.04
45393;BMP280;31129;44.810;10.334;2023-02-01T01:49:20;101212.81;;;6.15
45393;BMP280;31129;44.810;10.334;2023-02-01T01:51:49;101215.63;;;6.28
45393;BMP280;31129;44.810;10.334;2023-02-01T01:54:23;101196.13;;;6.17
45393;BMP280;31129;44.810;10.334;2023-02-01T01:56:56;101204.25;;;6.17
45393;BMP280;31129;44.810;10.334;2023-02-01T01:59:23;101200.66;;;6.04
45393;BMP280;31129;44.810;10.334;2023-02-01T02:01:49;101205.13;;;5.90
45393;BMP280;31129;44.810;10.334;2023-02-01T02:04:15;101203.47;;;5.77
45393;BMP280;31129;44.810;10.334;2023-02-01T02:06:51;101208.41;;;5.82
45393;BMP280;31129;44.810;10.334;2023-02-01T02:09:20;101207.84;;;5.90
45393;BMP280;31129;44.810;10.334;2023-02-01T02:11:47;101206.97;;;5.97
45393;BMP280;31129;44.810;10.334;2023-02-01T02:14:15;101205.41;;;5.96
45393;BMP280;31129;44.810;10.334;2023-02-01T02:28:18;101219.69;;;5.77
45393;BMP280;31129;44.810;10.334;2023-02-01T02:33:43;101212.50;;;5.47
45393;BMP280;31129;44.810;10.334;2023-02-01T02:44:43;101217.78;;;5.30
45393;BMP280;31129;44.810;10.334;2023-02-01T02:48:02;101215.09;;;5.30
45393;BMP280;31129;44.810;10.334;2023-02-01T02:53:34;101221.81;;;5.22
45393;BMP280;31129;44.810;10.334;2023-02-01T02:56:21;101216.81;;;5.21
45393;BMP280;31129;44.810;10.334;2023-02-01T02:59:08;101217.25;;;5.16
45393;BMP280;31129;44.810;10.334;2023-02-01T03:01:54;101212.41;;;5.07
45393;BMP280;31129;44.810;10.334;2023-02-01T03:04:38;101213.59;;;5.03
45393;BMP280;31129;44.810;10.334;2023-02-01T03:13:08;101212.34;;;5.34
45393;BMP280;31129;44.810;10.334;2023-02-01T03:18:38;101209.78;;;5.27
45393;BMP280;31129;44.810;10.334;2023-02-01T03:21:14;101208.81;;;5.14
45393;BMP280;31129;44.810;10.334;2023-02-01T03:23:42;101213.78;;;5.15
45393;BMP280;31129;44.810;10.334;2023-02-01T03:26:11;101211.50;;;5.14
45393;BMP280;31129;44.810;10.334;2023-02-01T03:28:45;101215.69;;;5.18
45393;BMP280;31129;44.810;10.334;2023-02-01T03:31:13;101221.16;;;5.15
45393;BMP280;31129;44.810;10.334;2023-02-01T03:33:39;101215.19;;;5.27
45393;BMP280;31129;44.810;10.334;2023-02-01T03:41:40;101211.34;;;5.24
45393;BMP280;31129;44.810;10.334;2023-02-01T03:44:21;101210.00;;;5.36
45393;BMP280;31129;44.810;10.334;2023-02-01T03:47:13;101214.28;;;5.34
45393;BMP280;31129;44.810;10.334;2023-02-01T03:49:43;101209.41;;;5.25
45393;BMP280;31129;44.810;10.334;2023-02-01T03:52:12;101220.69;;;5.20
45393;BMP280;31129;44.810;10.334;2023-02-01T03:54:42;101221.09;;;5.18
45393;BMP280;31129;44.810;10.334;2023-02-01T03:57:11;101225.44;;;5.12
45393;BMP280;31129;44.810;10.334;2023-02-01T03:59:42;101224.63;;;5.15
45393;BMP280;31129;44.810;10.334;2023-02-01T04:02:09;101222.47;;;5.07
45393;BMP280;31129;44.810;10.334;2023-02-01T04:04:36;101212.69;;;5.13
45393;BMP280;31129;44.810;10.334;2023-02-01T04:07:02;101213.78;;;5.15
45393;BMP280;31129;44.810;10.334;2023-02-01T04:09:28;101213.94;;;5.08
45393;BMP280;31129;44.810;10.334;2023-02-01T04:11:53;101207.78;;;5.04
45393;BMP280;31129;44.810;10.334;2023-02-01T04:14:19;101212.81;;;5.06
45393;BMP280;31129;44.810;10.334;2023-02-01T04:16:44;101202.38;;;5.04
45393;BMP280;31129;44.810;10.334;2023-02-01T04:19:10;101206.84;;;5.14
45393;BMP280;31129;44.810;10.334;2023-02-01T04:21:35;101207.75;;;5.31
45393;BMP280;31129;44.810;10.334;2023-02-01T04:24:01;101199.63;;;5.31
45393;BMP280;31129;44.810;10.334;2023-02-01T04:26:26;101199.22;;;5.33
45393;BMP280;31129;44.810;10.334;2023-02-01T04:28:51;101196.63;;;5.49
45393;BMP280;31129;44.810;10.334;2023-02-01T04:31:18;101194.53;;;5.37
45393;BMP280;31129;44.810;10.334;2023-02-01T04:33:51;101203.03;;;5.35
45393;BMP280;31129;44.810;10.334;2023-02-01T04:36:17;101204.78;;;5.45
45393;BMP280;31129;44.810;10.334;2023-02-01T04:38:44;101192.97;;;5.59
45393;BMP280;31129;44.810;10.334;2023-02-01T04:41:10;101202.50;;;5.44
45393;BMP280;31129;44.810;10.334;2023-02-01T04:43:35;101207.41;;;5.52
45393;BMP280;31129;44.810;10.334;2023-02-01T04:46:01;101200.09;;;5.49
45393;BMP280;31129;44.810;10.334;2023-02-01T04:48:26;101191.53;;;5.54
45393;BMP280;31129;44.810;10.334;2023-02-01T04:50:52;101197.75;;;5.51
45393;BMP280;31129;44.810;10.334;2023-02-01T04:53:18;101188.84;;;5.51
45393;BMP280;31129;44.810;10.334;2023-02-01T04:55:44;101196.97;;;5.51
45393;BMP280;31129;44.810;10.334;2023-02-01T04:58:10;101199.88;;;5.40
45393;BMP280;31129;44.810;10.334;2023-02-01T05:00:36;101199.91;;;5.60
45393;BMP280;31129;44.810;10.334;2023-02-01T05:03:02;101187.22;;;5.57
45393;BMP280;31129;44.810;10.334;2023-02-01T05:05:27;101185.09;;;5.45
45393;BMP280;31129;44.810;10.334;2023-02-01T05:07:53;101187.88;;;5.41
45393;BMP280;31129;44.810;10.334;2023-02-01T05:10:18;101184.00;;;5.42
45393;BMP280;31129;44.810;10.334;2023-02-01T05:12:44;101189.06;;;5.40
45393;BMP280;31129;44.810;10.334;2023-02-01T05:15:29;101197.75;;;5.51
45393;BMP280;31129;44.810;10.334;2023-02-01T05:17:54;101196.34;;;5.43
45393;BMP280;31129;44.810;10.334;2023-02-01T05:20:20;101201.63;;;5.50
45393;BMP280;31129;44.810;10.334;2023-02-01T05:22:45;101201.88;;;5.36
45393;BMP280;31129;44.810;10.334;2023-02-01T05:25:10;101203.22;;;5.48
45393;BMP280;31129;44.810;10.334;2023-02-01T05:27:36;101194.75;;;5.46
45393;BMP280;31129;44.810;10.334;2023-02-01T05:30:03;101197.78;;;5.48
45393;BMP280;31129;44.810;10.334;2023-02-01T05:32:29;101199.66;;;5.51
45393;BMP280;31129;44.810;10.334;2023-02-01T05:34:54;101199.13;;;5.40
45393;BMP280;31129;44.810;10.334;2023-02-01T05:37:20;101197.69;;;5.32
45393;BMP280;31129;44.810;10.334;2023-02-01T05:39:45;101201.09;;;5.36
45393;BMP280;31129;44.810;10.334;2023-02-01T05:42:11;101204.97;;;5.35
45393;BMP280;31129;44.810;10.334;2023-02-01T05:44:36;101214.78;;;5.48
45393;BMP280;31129;44.810;10.334;2023-02-01T05:47:01;101202.19;;;5.42
45393;BMP280;31129;44.810;10.334;2023-02-01T05:49:27;101206.16;;;5.34
45393;BMP280;31129;44.810;10.334;2023-02-01T05:51:52;101204.53;;;5.40
45393;BMP280;31129;44.810;10.334;2023-02-01T05:54:18;101206.97;;;5.30
45393;BMP280;31129;44.810;10.334;2023-02-01T05:56:43;101214.41;;;5.26
45393;BMP280;31129;44.810;10.334;2023-02-01T05:59:10;101207.31;;;5.36
45393;BMP280;31129;44.810;10.334;2023-02-01T06:01:35;101211.72;;;5.26
45393;BMP280;31129;44.810;10.334;2023-02-01T06:04:01;101204.50;;;5.16
45393;BMP280;31129;44.810;10.334;2023-02-01T06:06:26;101204.16;;;5.14
45393;BMP280;31129;44.810;10.334;2023-02-01T06:08:52;101203.16;;;5.05
45393;BMP280;31129;44.810;10.334;2023-02-01T06:11:17;101210.50;;;5.04
45393;BMP280;31129;44.810;10.334;2023-02-01T06:13:42;101210.81;;;5.10
45393;BMP280;31129;44.810;10.334;2023-02-01T06:16:08;101224.63;;;5.15
45393;BMP280;31129;44.810;10.334;2023-02-01T06:18:34;101219.00;;;5.06
45393;BMP280;31129;44.810;10.334;2023-02-01T06:21:00;101219.97;;;5.16
45393;BMP280;31129;44.810;10.334;2023-02-01T06:23:25;101227.22;;;5.22
45393;BMP280;31129;44.810;10.334;2023-02-01T06:25:52;101218.44;;;5.15
45393;BMP280;31129;44.810;10.334;2023-02-01T06:28:18;101212.56;;;5.20
45393;BMP280;31129;44.810;10.334;2023-02-01T06:30:44;101220.78;;;5.40
45393;BMP280;31129;44.810;10.334;2023-02-01T06:33:14;101216.06;;;5.20
45393;BMP280;31129;44.810;10.334;2023-02-01T06:35:43;101216.41;;;5.22
45393;BMP280;31129;44.810;10.334;2023-02-01T06:38:10;101210.38;;;5.35
45393;BMP280;31129;44.810;10.334;2023-02-01T06:40:39;101215.03;;;5.34
45393;BMP280;31129;44.810;10.334;2023-02-01T06:43:07;101219.47;;;5.24
45393;BMP280;31129;44.810;10.334;2023-02-01T06:45:32;101212.03;;;5.28
45393;BMP280;31129;44.810;10.334;2023-02-01T06:48:01;101209.84;;;5.20
45393;BMP280;31129;44.810;10.334;2023-02-01T06:50:27;101211.16;;;5.35
45393;BMP280;31129;44.810;10.334;2023-02-01T06:52:52;101207.47;;;5.25
45393;BMP280;31129;44.810;10.334;2023-02-01T06:55:18;101210.19;;;5.25
45393;BMP280;31129;44.810;10.334;2023-02-01T06:57:43;101220.16;;;5.28
45393;BMP280;31129;44.810;10.334;2023-02-01T07:00:09;101226.06;;;5.23
45393;BMP280;31129;44.810;10.334;2023-02-01T07:02:34;101226.69;;;5.31
45393;BMP280;31129;44.810;10.334;2023-02-01T07:05:00;101229.25;;;5.42
45393;BMP280;31129;44.810;10.334;2023-02-01T07:07:25;101229.25;;;5.42
45393;BMP280;31129;44.810;10.334;2023-02-01T07:09:51;101238.00;;;5.26
45393;BMP280;31129;44.810;10.334;2023-02-01T07:12:16;101230.84;;;5.36
45393;BMP280;31129;44.810;10.334;2023-02-01T07:14:41;101230.47;;;5.37
45393;BMP280;31129;44.810;10.334;2023-02-01T07:17:07;101234.56;;;5.45
45393;BMP280;31129;44.810;10.334;2023-02-01T07:19:32;101231.38;;;5.50
45393;BMP280;31129;44.810;10.334;2023-02-01T07:21:58;101227.06;;;5.56
45393;BMP280;31129;44.810;10.334;2023-02-01T07:24:23;101229.16;;;5.45
45393;BMP280;31129;44.810;10.334;2023-02-01T07:26:49;101229.44;;;5.51
45393;BMP280;31129;44.810;10.334;2023-02-01T07:29:17;101226.44;;;5.69
45393;BMP280;31129;44.810;10.334;2023-02-01T07:31:42;101204.72;;;5.72
45393;BMP280;31129;44.810;10.334;2023-02-01T07:34:08;101205.75;;;5.78
45393;BMP280;31129;44.810;10.334;2023-02-01T07:36:33;101205.16;;;5.71
45393;BMP280;31129;44.810;10.334;2023-02-01T07:39:04;101207.78;;;5.74
45393;BMP280;31129;44.810;10.334;2023-02-01T07:41:29;101198.81;;;5.77
45393;BMP280;31129;44.810;10.334;2023-02-01T07:43:55;101217.16;;;5.89
45393;BMP280;31129;44.810;10.334;2023-02-01T07:46:20;101220.50;;;5.97
45393;BMP280;31129;44.810;10.334;2023-02-01T07:48:46;101225.03;;;6.04
45393;BMP280;31129;44.810;10.334;2023-02-01T07:51:13;101221.44;;;6.07
45393;BMP280;31129;44.810;10.334;2023-02-01T07:53:40;101223.53;;;6.19
45393;BMP280;31129;44.810;10.334;2023-02-01T07:56:12;101231.19;;;6.24
45393;BMP280;31129;44.810;10.334;2023-02-01T07:58:38;101237.78;;;6.23
45393;BMP280;31129;44.810;10.334;2023-02-01T08:01:03;101243.53;;;6.25
45393;BMP280;31129;44.810;10.334;2023-02-01T08:03:59;101255.09;;;6.29
45393;BMP280;31129;44.810;10.334;2023-02-01T08:06:27;101261.38;;;6.42
45393;BMP280;31129;44.810;10.334;2023-02-01T08:08:53;101268.53;;;6.33
45393;BMP280;31129;44.810;10.334;2023-02-01T08:11:20;101251.09;;;6.34
45393;BMP280;31129;44.810;10.334;2023-02-01T08:13:46;101272.88;;;6.30
45393;BMP280;31129;44.810;10.334;2023-02-01T08:16:13;101264.59;;;6.37
45393;BMP280;31129;44.810;10.334;2023-02-01T08:18:39;101256.75;;;6.43
45393;BMP280;31129;44.810;10.334;2023-02-01T08:21:09;101252.75;;;6.31
45393;BMP280;31129;44.810;10.334;2023-02-01T08:23:36;101255.97;;;6.42
45393;BMP280;31129;44.810;10.334;2023-02-01T08:26:11;101264.59;;;6.37
45393;BMP280;31129;44.810;10.334;2023-02-01T08:28:38;101261.88;;;6.37
45393;BMP280;31129;44.810;10.334;2023-02-01T08:31:08;101265.22;;;6.25
45393;BMP280;31129;44.810;10.334;2023-02-01T08:33:34;101266.81;;;6.22
45393;BMP280;31129;44.810;10.334;2023-02-01T08:36:02;101281.50;;;6.45
45393;BMP280;31129;44.810;10.334;2023-02-01T08:38:28;101285.56;;;6.33
45393;BMP280;31129;44.810;10.334;2023-02-01T08:40:53;101293.91;;;6.22
45393;BMP280;31129;44.810;10.334;2023-02-01T08:43:19;101296.63;;;6.22
45393;BMP280;31129;44.810;10.334;2023-02-01T08:45:47;101298.91;;;6.24
45393;BMP280;31129;44.810;10.334;2023-02-01T08:48:12;101276.94;;;6.38
45393;BMP280;31129;44.810;10.334;2023-02-01T08:50:38;101271.25;;;6.33
45393;BMP280;31129;44.810;10.334;2023-02-01T08:53:03;101259.84;;;6.41
45393;BMP280;31129;44.810;10.334;2023-02-01T08:55:29;101274.31;;;6.54
45393;BMP280;31129;44.810;10.334;2023-02-01T08:57:54;101292.28;;;6.65
45393;BMP280;31129;44.810;10.334;2023-02-01T09:00:21;101296.34;;;6.73
45393;BMP280;31129;44.810;10.334;2023-02-01T09:02:46;101296.34;;;6.73
45393;BMP280;31129;44.810;10.334;2023-02-01T09:05:12;101306.25;;;6.83
45393;BMP280;31129;44.810;10.334;2023-02-01T09:07:39;101311.13;;;6.88
45393;BMP280;31129;44.810;10.334;2023-02-01T09:10:05;101318.63;;;6.84
45393;BMP280;31129;44.810;10.334;2023-02-01T09:12:32;101321.94;;;6.91
45393;BMP280;31129;44.810;10.334;2023-02-01T09:14:58;101318.22;;;7.02
45393;BMP280;31129;44.810;10.334;2023-02-01T09:17:27;101323.63;;;7.02
45393;BMP280;31129;44.810;10.334;2023-02-01T09:19:53;101323.22;;;7.03
45393;BMP280;31129;44.810;10.334;2023-02-01T09:22:18;101320.84;;;6.89
45393;BMP280;31129;44.810;10.334;2023-02-01T09:24:43;101327.78;;;6.90
45393;BMP280;31129;44.810;10.334;2023-02-01T09:27:09;101330.88;;;6.88
45393;BMP280;31129;44.810;10.334;2023-02-01T09:29:35;101330.88;;;7.08
45393;BMP280;31129;44.810;10.334;2023-02-01T09:32:00;101317.09;;;6.99
45393;BMP280;31129;44.810;10.334;2023-02-01T09:34:26;101318.03;;;6.92
45393;BMP280;31129;44.810;10.334;2023-02-01T09:36:51;101322.50;;;6.83
45393;BMP280;31129;44.810;10.334;2023-02-01T09:39:16;101316.50;;;6.72
45393;BMP280;31129;44.810;10.334;2023-02-01T09:46:58;101319.69;;;6.86
45393;BMP280;31129;44.810;10.334;2023-02-01T09:49:31;101320.84;;;6.89
45393;BMP280;31129;44.810;10.334;2023-02-01T09:51:59;101330.59;;;7.03
45393;BMP280;31129;44.810;10.334;2023-02-01T09:54:30;101327.97;;;7.15
45393;BMP280;31129;44.810;10.334;2023-02-01T09:57:08;101326.56;;;7.27
45393;BMP280;31129;44.810;10.334;2023-02-01T09:59:40;101316.63;;;7.37
45393;BMP280;31129;44.810;10.334;2023-02-01T10:02:14;101320.28;;;7.30
45393;BMP280;31129;44.810;10.334;2023-02-01T10:04:41;101315.59;;;7.47
45393;BMP280;31129;44.810;10.334;2023-02-01T10:07:39;101312.81;;;7.50
45393;BMP280;31129;44.810;10.334;2023-02-01T10:10:15;101310.16;;;7.47
45393;BMP280;31129;44.810;10.334;2023-02-01T10:15:28;101308.28;;;7.76
45393;BMP280;31129;44.810;10.334;2023-02-01T10:26:18;101297.00;;;8.07
45393;BMP280;31129;44.810;10.334;2023-02-01T10:28:49;101298.44;;;8.11
45393;BMP280;31129;44.810;10.334;2023-02-01T10:31:15;101298.00;;;8.13
45393;BMP280;31129;44.810;10.334;2023-02-01T10:33:44;101294.41;;;8.16
45393;BMP280;31129;44.810;10.334;2023-02-01T10:36:19;101299.56;;;8.26
45393;BMP280;31129;44.810;10.334;2023-02-01T10:38:46;101298.38;;;8.40
45393;BMP280;31129;44.810;10.334;2023-02-01T10:41:17;101294.81;;;8.43
45393;BMP280;31129;44.810;10.334;2023-02-01T10:43:53;101293.19;;;8.58
45393;BMP280;31129;44.810;10.334;2023-02-01T10:46:20;101286.25;;;8.83
45393;BMP280;31129;44.810;10.334;2023-02-01T10:48:47;101279.56;;;8.84
45393;BMP280;31129;44.810;10.334;2023-02-01T10:51:21;101274.47;;;8.86
45393;BMP280;31129;44.810;10.334;2023-02-01T10:54:11;101274.38;;;8.89
45393;BMP280;31129;44.810;10.334;2023-02-01T10:56:39;101272.16;;;9.10
45393;BMP280;31129;44.810;10.334;2023-02-01T10:59:06;101273.25;;;9.00
45393;BMP280;31129;44.810;10.334;2023-02-01T11:01:42;101266.72;;;9.10
45393;BMP280;31129;44.810;10.334;2023-02-01T11:04:11;101273.97;;;9.25
45393;BMP280;31129;44.810;10.334;2023-02-01T11:06:44;101272.34;;;9.28
45393;BMP280;31129;44.810;10.334;2023-02-01T11:09:24;101276.81;;;9.22
45393;BMP280;31129;44.810;10.334;2023-02-01T11:11:58;101275.78;;;9.41
45393;BMP280;31129;44.810;10.334;2023-02-01T11:16:54;101268.91;;;9.49
45393;BMP280;31129;44.810;10.334;2023-02-01T11:19:20;101262.63;;;9.61
45393;BMP280;31129;44.810;10.334;2023-02-01T11:21:58;101280.00;;;9.55
45393;BMP280;31129;44.810;10.334;2023-02-01T11:24:26;101272.31;;;9.62
45393;BMP280;31129;44.810;10.334;2023-02-01T11:26:57;101275.13;;;9.72
45393;BMP280;31129;44.810;10.334;2023-02-01T11:29:24;101270.75;;;9.74
45393;BMP280;31129;44.810;10.334;2023-02-01T11:31:57;101260.63;;;9.75
45393;BMP280;31129;44.810;10.334;2023-02-01T11:34:26;101276.16;;;9.87
45393;BMP280;31129;44.810;10.334;2023-02-01T11:36:57;101278.56;;;9.85
45393;BMP280;31129;44.810;10.334;2023-02-01T11:39:32;101270.69;;;9.87
45393;BMP280;31129;44.810;10.334;2023-02-01T11:41:59;101261.47;;;9.93
45393;BMP280;31129;44.810;10.334;2023-02-01T11:44:38;101258.22;;;9.98
45393;BMP280;31129;44.810;10.334;2023-02-01T11:47:27;101267.41;;;9.92
45393;BMP280;31129;44.810;10.334;2023-02-01T11:49:58;101266.78;;;10.10
45393;BMP280;31129;44.810;10.334;2023-02-01T11:55:15;101265.09;;;10.12
45393;BMP280;31129;44.810;10.334;2023-02-01T12:03:56;101246.25;;;10.27
45393;BMP280;31129;44.810;10.334;2023-02-01T12:06:52;101247.31;;;10.29
45393;BMP280;31129;44.810;10.334;2023-02-01T12:09:28;101237.03;;;10.33
45393;BMP280;31129;44.810;10.334;2023-02-01T12:11:59;101229.94;;;10.45
45393;BMP280;31129;44.810;10.334;2023-02-01T12:15:05;101239.50;;;10.50
45393;BMP280;31129;44.810;10.334;2023-02-01T12:37:37;101187.16;;;11.37
45393;BMP280;31129;44.810;10.334;2023-02-01T12:45:34;101153.53;;;11.64
45393;BMP280;31129;44.810;10.334;2023-02-01T12:50:41;101153.00;;;11.84
45393;BMP280;31129;44.810;10.334;2023-02-01T12:53:17;101141.34;;;11.74
45393;BMP280;31129;44.810;10.334;2023-02-01T12:55:49;101146.13;;;11.97
45393;BMP280;31129;44.810;10.334;2023-02-01T12:58:24;101138.41;;;12.20
45393;BMP280;31129;44.810;10.334;2023-02-01T13:01:34;101141.59;;;12.18
45393;BMP280;31129;44.810;10.334;2023-02-01T13:04:17;101139.16;;;12.44
45393;BMP280;31129;44.810;10.334;2023-02-01T13:06:53;101139.91;;;12.44
45393;BMP280;31129;44.810;10.334;2023-02-01T13:09:26;101140.78;;;12.51
45393;BMP280;31129;44.810;10.334;2023-02-01T13:11:57;101136.97;;;12.48
45393;BMP280;31129;44.810;10.334;2023-02-01T13:14:29;101134.06;;;12.52
45393;BMP280;31129;44.810;10.334;2023-02-01T13:17:10;101137.91;;;12.54
45393;BMP280;31129;44.810;10.334;2023-02-01T13:19:54;101132.75;;;12.47
45393;BMP280;31129;44.810;10.334;2023-02-01T13:22:26;101128.44;;;12.55
45393;BMP280;31129;44.810;10.334;2023-02-01T13:25:07;101114.03;;;12.69
45393;BMP280;31129;44.810;10.334;2023-02-01T13:27:37;101111.56;;;12.71
45393;BMP280;31129;44.810;10.334;2023-02-01T13:30:26;101112.84;;;12.85
45393;BMP280;31129;44.810;10.334;2023-02-01T13:39:02;101107.72;;;13.37
45393;BMP280;31129;44.810;10.334;2023-02-01T13:41:35;101095.50;;;13.52
45393;BMP280;31129;44.810;10.334;2023-02-01T13:44:14;101091.47;;;13.48
45393;BMP280;31129;44.810;10.334;2023-02-01T13:46:45;101101.25;;;13.54
45393;BMP280;31129;44.810;10.334;2023-02-01T13:49:32;101096.50;;;13.70
45393;BMP280;31129;44.810;10.334;2023-02-01T13:52:02;101111.09;;;13.96
45393;BMP280;31129;44.810;10.334;2023-02-01T13:54:30;101101.81;;;13.94
45393;BMP280;31129;44.810;10.334;2023-02-01T13:57:01;101102.81;;;13.76
45393;BMP280;31129;44.810;10.334;2023-02-01T14:05:12;101114.66;;;14.02
45393;BMP280;31129;44.810;10.334;2023-02-01T14:10:57;101115.19;;;14.47
45393;BMP280;31129;44.810;10.334;2023-02-01T14:13:37;101101.97;;;14.45
45393;BMP280;31129;44.810;10.334;2023-02-01T14:21:27;101083.50;;;14.05
45393;BMP280;31129;44.810;10.334;2023-02-01T14:31:50;101082.03;;;14.76
45393;BMP280;31129;44.810;10.334;2023-02-01T14:34:48;101077.97;;;14.97
45393;BMP280;31129;44.810;10.334;2023-02-01T14:53:18;101082.50;;;15.32
45393;BMP280;31129;44.810;10.334;2023-02-01T14:58:32;101081.47;;;15.29
45393;BMP280;31129;44.810;10.334;2023-02-01T15:01:04;101084.44;;;15.26
45393;BMP280;31129;44.810;10.334;2023-02-01T15:06:20;101083.84;;;15.48
45393;BMP280;31129;44.810;10.334;2023-02-01T15:08:47;101082.09;;;15.13
45393;BMP280;31129;44.810;10.334;2023-02-01T15:11:15;101085.38;;;15.17
45393;BMP280;31129;44.810;10.334;2023-02-01T15:13:48;101078.03;;;15.03
45393;BMP280;31129;44.810;10.334;2023-02-01T15:16:16;101080.31;;;14.79
45393;BMP280;31129;44.810;10.334;2023-02-01T15:18:41;101081.59;;;14.83
45393;BMP280;31129;44.810;10.334;2023-02-01T15:21:19;101084.69;;;15.22
45393;BMP280;31129;44.810;10.334;2023-02-01T15:23:45;101088.88;;;15.18
45393;BMP280;31129;44.810;10.334;2023-02-01T15:26:25;101085.94;;;14.95
45393;BMP280;31129;44.810;10.334;2023-02-01T15:28:50;101084.03;;;15.38
45393;BMP280;31129;44.810;10.334;2023-02-01T15:31:31;101081.47;;;15.29
45393;BMP280;31129;44.810;10.334;2023-02-01T15:33:57;101083.81;;;14.79
45393;BMP280;31129;44.810;10.334;2023-02-01T15:36:23;101076.41;;;14.65
45393;BMP280;31129;44.810;10.334;2023-02-01T15:41:50;101072.13;;;14.84
45393;BMP280;31129;44.810;10.334;2023-02-01T15:44:19;101079.06;;;14.54
45393;BMP280;31129;44.810;10.334;2023-02-01T15:46:47;101076.50;;;14.24
45393;BMP280;31129;44.810;10.334;2023-02-01T15:49:37;101078.00;;;14.05
45393;BMP280;31129;44.810;10.334;2023-02-01T15:52:53;101067.53;;;14.04
45393;BMP280;31129;44.810;10.334;2023-02-01T15:55:02;101075.38;;;13.76
45393;BMP280;31129;44.810;10.334;2023-02-01T15:57:33;101079.38;;;13.40
45393;BMP280;31129;44.810;10.334;2023-02-01T16:00:04;101077.41;;;13.11
45393;BMP280;31129;44.810;10.334;2023-02-01T16:02:44;101089.59;;;12.95
45393;BMP280;31129;44.810;10.334;2023-02-01T16:05:34;101079.28;;;12.90
45393;BMP280;31129;44.810;10.334;2023-02-01T16:08:05;101088.00;;;12.89
45393;BMP280;31129;44.810;10.334;2023-02-01T16:10:46;101083.16;;;12.83
45393;BMP280;31129;44.810;10.334;2023-02-01T16:13:13;101084.66;;;12.70
45393;BMP280;31129;44.810;10.334;2023-02-01T16:15:39;101084.19;;;12.71
45393;BMP280;31129;44.810;10.334;2023-02-01T16:18:06;101090.41;;;12.57
45393;BMP280;31129;44.810;10.334;2023-02-01T16:20:33;101095.06;;;12.42
45393;BMP280;31129;44.810;10.334;2023-02-01T16:23:01;101084.00;;;12.36
45393;BMP280;31129;44.810;10.334;2023-02-01T16:25:26;101083.09;;;12.16
45393;BMP280;31129;44.810;10.334;2023-02-01T16:27:51;101085.53;;;12.14
45393;BMP280;31129;44.810;10.334;2023-02-01T16:30:17;101079.94;;;12.08
45393;BMP280;31129;44.810;10.334;2023-02-01T16:32:48;101089.72;;;12.00
45393;BMP280;31129;44.810;10.334;2023-02-01T16:35:35;101082.50;;;11.88
45393;BMP280;31129;44.810;10.334;2023-02-01T16:38:05;101081.44;;;11.85